Data for 10/18/2015

Time Sea-Level Adjusted Pressure Absolute Pressure Temperature Relative Humidity Dew Point   
(mb) (inHg) (mb) (inHg) (C) (F) (%) (C) (F)
00:05 1016 30 846 24.98 13.6 56.4 34 -2 28.4
00:10 1016 30 846 24.98 13.8 56.8 32 -2.6 27.4
00:15 1016 30 846 24.98 14 57.2 32 -2.2 28
00:20 1016 30 846 24.98 13.9 57 34 -1.8 28.7
00:25 1016 30 846 24.98 13.7 56.6 34 -2 28.3
00:30 1016 30 846 24.98 13.5 56.3 34 -1.8 28.8
00:35 1016 30 846 24.98 13.4 56.2 34 -2 28.3
00:40 1016 30 846 24.98 13.6 56.4 34 -2 28.3
00:45 1017 30.03 846 24.98 13.6 56.5 34 -1.9 28.7
00:50 1017 30.03 846 24.98 13.3 56 36 -1.4 29.6
00:55 1017 30.03 846 24.98 13.1 55.5 37 -1.1 30.1
01:00 1017 30.03 846 24.98 12.8 55 39 -0.9 30.3
01:05 1017 30.03 846 24.98 12.7 54.8 38 -1.2 29.9
01:10 1016 30 846 24.98 12.8 55.1 37 -1.3 29.7
01:15 1016 30 846 24.98 13 55.3 37 -1.2 29.8
01:20 1016 30 846 24.98 13.1 55.6 36 -1.6 29.1
01:25 1017 30.03 846 24.98 13.3 55.9 36 -1.3 29.6
01:30 1017 30.03 846 24.98 13.3 55.9 35 -1.6 29.1
01:35 1017 30.03 846 24.98 13.4 56.1 36 -1.4 29.5
01:40 1017 30.03 846 24.98 13.3 55.9 37 -1 30.1
01:45 1017 30.03 846 24.98 13.2 55.7 37 -1.1 30.1
01:50 1017 30.03 846 24.98 13.2 55.7 36 -1.5 29.3
01:55 1017 30.03 846 24.98 13.5 56.2 36 -1.2 29.9
02:00 1017 30.03 846 24.98 13.5 56.3 35 -1.5 29.4
02:05 1017 30.03 846 24.98 14 57.2 33 -1.8 28.8
02:10 1017 30.03 846 24.98 14.1 57.3 33 -1.8 28.8
02:15 1017 30.03 846 24.98 14.1 57.4 35 -1 30.2
02:20 1017 30.03 846 24.98 14 57.2 36 -0.7 30.8
02:25 1017 30.03 846 24.98 14.1 57.3 35 -1.3 29.7
02:30 1017 30.03 846 24.98 13.9 57.1 36 -0.8 30.6
02:35 1017 30.03 846 24.98 13.6 56.5 37 -0.7 30.7
02:40 1017 30.03 846 24.98 13.6 56.4 36 -1.1 30.1
02:45 1017 30.03 846 24.98 13.5 56.2 36 -1.2 29.8
02:50 1016 30 846 24.98 13.7 56.6 35 -1.5 29.4
02:55 1017 30.03 846 24.98 13.7 56.7 36 -1.1 30
03:00 1016 30 846 24.98 13.4 56.2 36 -1.2 29.8
03:05 1017 30.03 846 24.98 13.3 55.9 36 -1.3 29.6
03:10 1017 30.03 846 24.98 13.4 56.1 36 -1.3 29.6
03:15 1017 30.03 846 24.98 13.4 56.2 35 -1.5 29.4
03:20 1017 30.03 846 24.98 13.4 56.1 37 -1 30.3
03:25 1017 30.03 846 24.98 13.2 55.8 36 -1.5 29.4
03:30 1017 30.03 846 24.98 13.3 55.9 36 -1.3 29.6
03:35 1017 30.03 846 24.98 13.5 56.2 36 -1.1 30
03:40 1017 30.03 846 24.98 13.4 56.2 37 -1 30.1
03:45 1017 30.03 846 24.98 13.2 55.8 38 -0.6 31
03:50 1017 30.03 846 24.98 13.1 55.6 36 -1.5 29.3
03:55 1017 30.03 846 24.98 13.4 56 39 -0.2 31.6
04:00 1017 30.03 846 24.98 12.9 55.2 39 -0.6 30.8
04:05 1017 30.03 846 24.98 12.9 55.1 40 -0.2 31.6
04:10 1017 30.03 846 24.98 12.3 54.1 48 1.7 35.1
04:15 1017 30.03 846 24.98 12.4 54.2 39 -1.3 29.6
04:20 1017 30.03 846 24.98 13.9 57 36 -0.7 30.8
04:25 1017 30.03 846 24.98 14.4 57.9 38 0.4 32.8
04:30 1017 30.03 846 24.98 14.4 57.9 39 0.6 33.1
04:35 1017 30.03 846 24.98 14.1 57.4 43 1.8 35.2
04:40 1017 30.03 846 24.98 13.9 57 39 0.3 32.6
04:45 1017 30.03 846 24.98 14.6 58.3 39 0.8 33.5
04:50 1017 30.03 846 24.98 14.1 57.3 43 1.6 34.9
04:55 1017 30.03 846 24.98 13.6 56.4 42 0.9 33.6
05:00 1017 30.03 846 24.98 13.7 56.6 41 0.8 33.4
05:05 1017 30.03 846 24.98 13.9 56.9 42 1.3 34.3
05:10 1017 30.03 846 24.98 13.3 55.9 42 0.7 33.3
05:15 1017 30.03 846 24.98 12.9 55.2 49 2.6 36.6
05:20 1017 30.03 846 24.98 12 53.5 48 1.3 34.4
05:25 1017 30.03 846 24.98 11.9 53.5 50 1.9 35.4
05:30 1017 30.03 846 24.98 11.9 53.4 48 1.2 34.2
05:35 1017 30.03 846 24.98 11.9 53.5 50 2 35.6
05:40 1017 30.03 846 24.98 11.8 53.2 47 1 33.8
05:45 1017 30.03 846 24.98 12.2 54 49 2 35.6
05:50 1017 30.03 846 24.98 11.9 53.4 49 1.5 34.7
05:55 1017 30.03 846 24.98 12.1 53.7 48 1.5 34.8
06:00 1017 30.03 846 24.98 12 53.5 49 1.7 35.1
06:05 1017 30.03 846 24.98 11.9 53.5 49 1.6 34.9
06:10 1017 30.03 846 24.98 11.9 53.3 49 1.5 34.7
06:15 1017 30.03 846 24.98 12 53.6 49 1.6 34.9
06:20 1017 30.03 846 24.98 12.1 53.8 47 1.3 34.3
06:25 1017 30.03 846 24.98 12.4 54.2 47 1.3 34.3
06:30 1017 30.03 846 24.98 12.7 54.8 46 1.5 34.7
06:35 1017 30.03 846 24.98 13 55.3 45 1.5 34.7
06:40 1017 30.03 846 24.98 13.1 55.5 45 1.6 35
06:45 1017 30.03 846 24.98 13.1 55.6 45 1.6 34.9
06:50 1017 30.03 846 24.98 13 55.4 46 1.8 35.2
06:55 1017 30.03 846 24.98 12.8 55 46 1.6 34.9
07:00 1017 30.03 846 24.98 12.7 54.8 47 1.6 35
07:05 1017 30.03 846 24.98 12.7 54.9 47 1.8 35.2
07:10 1017 30.03 846 24.98 12.8 55 47 1.7 35.1
07:15 1017 30.03 846 24.98 13 55.3 46 1.7 35.1
07:20 1017 30.03 846 24.98 13 55.3 46 1.6 34.9
07:25 1017 30.03 846 24.98 13 55.4 46 1.7 35.1
07:30 1017 30.03 846 24.98 13.1 55.5 45 1.4 34.6
07:35 1017 30.03 846 24.98 13 55.3 45 1.4 34.5
07:40 1017 30.03 846 24.98 13.1 55.6 45 1.4 34.6
07:45 1017 30.03 846 24.98 13.2 55.7 45 1.5 34.7
07:50 1017 30.03 846 24.98 13.1 55.7 45 1.6 34.8
07:55 1017 30.03 846 24.98 13.1 55.6 46 1.7 35.1
08:00 1017 30.03 846 24.98 13 55.3 48 2.2 35.9
08:05 1017 30.03 846 24.98 12.8 55.1 48 2.1 35.8
08:10 1017 30.03 846 24.98 12.9 55.2 48 2.3 36.2
08:15 1017 30.03 846 24.98 12.9 55.3 48 2.3 36.1
08:20 1017 30.03 846 24.98 13.1 55.5 47 2.1 35.8
08:25 1017 30.03 846 24.98 13.2 55.8 46 2.1 35.7
08:30 1017 30.03 846 24.98 13.5 56.3 45 1.9 35.3
08:35 1017 30.03 846 24.98 13.8 56.8 45 2.1 35.8
08:40 1017 30.03 846 24.98 14 57.2 45 2.4 36.3
08:45 1017 30.03 847 25.01 14 57.2 47 2.8 37
08:50 1017 30.03 847 25.01 14 57.1 46 2.6 36.6
08:55 1017 30.03 847 25.01 14 57.2 45 2.5 36.4
09:00 1017 30.03 847 25.01 14.4 57.9 46 2.9 37.1
09:05 1017 30.03 847 25.01 14.3 57.8 48 3.6 38.4
09:10 1017 30.03 847 25.01 13.9 57.1 51 4.1 39.4
09:15 1018 30.06 847 25.01 13.8 56.8 53 4.4 39.9
09:20 1018 30.06 847 25.01 13.7 56.7 52 4.2 39.6
09:25 1018 30.06 847 25.01 14 57.2 52 4.4 39.8
09:30 1018 30.06 847 25.01 14.2 57.5 51 4.1 39.5
09:35 1018 30.06 847 25.01 14.7 58.4 48 4 39.2
09:40 1018 30.06 847 25.01 15.5 59.8 43 3.1 37.7
09:45 1018 30.06 847 25.01 16.4 61.6 41 3.3 38
09:50 1018 30.06 847 25.01 17.2 62.9 40 3.7 38.6
09:55 1018 30.06 847 25.01 17.9 64.3 38 3.7 38.6
10:00 1018 30.06 847 25.01 18.4 65.1 37 3.7 38.7
10:05 1018 30.06 847 25.01 18.7 65.6 38 4.3 39.7
10:10 1018 30.06 847 25.01 18.6 65.6 37 3.9 39
10:15 1018 30.06 847 25.01 18.7 65.6 39 4.6 40.3
10:20 1018 30.06 847 25.01 18.3 64.9 40 4.5 40.1
10:25 1018 30.06 847 25.01 17.9 64.2 41 4.5 40.1
10:30 1018 30.06 847 25.01 17.7 63.9 40 4.3 39.7
10:35 1018 30.06 847 25.01 17.5 63.4 42 4.5 40.1
10:40 1018 30.06 847 25.01 17.4 63.3 42 4.4 39.9
10:45 1018 30.06 847 25.01 17.4 63.4 42 4.5 40
10:50 1018 30.06 847 25.01 17.8 64 41 4.4 39.9
10:55 1018 30.06 847 25.01 17.9 64.3 41 4.6 40.3
11:00 1018 30.06 847 25.01 18.3 64.9 39 4.2 39.6
11:05 1017 30.03 847 25.01 18.8 65.9 38 4.2 39.5
11:10 1017 30.03 847 25.01 19.1 66.3 39 4.8 40.7
11:15 1017 30.03 847 25.01 19.1 66.3 38 4.5 40.1
11:20 1018 30.06 847 25.01 19.2 66.6 38 4.8 40.6
11:25 1017 30.03 847 25.01 19 66.3 38 4.6 40.3
11:30 1017 30.03 847 25.01 18.8 65.9 40 5.1 41.3
11:35 1018 30.06 847 25.01 18.5 65.2 41 5.1 41.2
11:40 1017 30.03 847 25.01 18.2 64.8 41 4.8 40.7
11:45 1018 30.06 847 25.01 18.4 65.2 40 4.8 40.7
11:50 1017 30.03 847 25.01 18.2 64.8 42 5.1 41.1
11:55 1017 30.03 847 25.01 18.1 64.7 43 5.5 41.8
12:00 1017 30.03 847 25.01 18.3 64.9 41 4.9 40.9
12:05 1017 30.03 847 25.01 18.6 65.4 40 4.9 40.8
12:10 1017 30.03 847 25.01 18.8 65.8 40 5 40.9
12:15 1017 30.03 847 25.01 19 66.2 39 4.8 40.6
12:20 1017 30.03 846 24.98 19.2 66.5 39 4.9 40.8
12:25 1017 30.03 846 24.98 19.3 66.7 39 5.2 41.3
12:30 1017 30.03 846 24.98 19.3 66.8 38 4.8 40.6
12:35 1017 30.03 846 24.98 19.6 67.2 37 4.6 40.2
12:40 1017 30.03 846 24.98 19.6 67.3 36 4.3 39.8
12:45 1017 30.03 846 24.98 19.5 67.1 36 4.2 39.5
12:50 1017 30.03 846 24.98 19.5 67.2 36 4.2 39.5
12:55 1017 30.03 846 24.98 19.5 67.2 36 4.2 39.5
13:00 1017 30.03 846 24.98 19.7 67.4 35 4.1 39.4
13:05 1017 30.03 846 24.98 19.6 67.2 36 4.3 39.8
13:10 1017 30.03 846 24.98 19.5 67.1 39 5.2 41.4
13:15 1017 30.03 846 24.98 19.3 66.8 43 6.7 44
13:20 1017 30.03 846 24.98 18.7 65.6 52 8.7 47.6
13:25 1017 30.03 846 24.98 18.1 64.6 48 6.9 44.5
13:30 1017 30.03 846 24.98 18 64.3 57 9.3 48.8
13:35 1017 30.03 846 24.98 18.2 64.7 48 7.2 45
13:40 1017 30.03 846 24.98 18.8 65.8 42 5.8 42.5
13:45 1017 30.03 846 24.98 18.7 65.7 47 7.2 45
13:50 1017 30.03 846 24.98 17.9 64.3 50 7.4 45.3
13:55 1017 30.03 846 24.98 18.3 64.9 47 6.8 44.2
14:00 1017 30.03 846 24.98 18.3 65 46 6.7 44.1
14:05 1017 30.03 846 24.98 18.6 65.5 44 6.1 43.1
14:10 1017 30.03 846 24.98 18.5 65.3 44 6 42.8
14:15 1017 30.03 846 24.98 18.3 64.9 44 5.8 42.5
14:20 1017 30.03 846 24.98 18.3 64.9 43 5.6 42.2
14:25 1017 30.03 846 24.98 18.4 65 43 5.8 42.4
14:30 1017 30.03 846 24.98 18.8 65.8 43 6 42.8
14:35 1017 30.03 846 24.98 19.2 66.5 43 6.4 43.5
14:40 1017 30.03 846 24.98 19 66.1 43 6.3 43.4
14:45 1017 30.03 846 24.98 18.6 65.4 45 6.6 43.9
14:50 1017 30.03 846 24.98 18.7 65.7 44 6.2 43.2
14:55 1017 30.03 846 24.98 18.5 65.3 44 6.2 43.2
15:00 1017 30.03 846 24.98 18.4 65.1 43 5.9 42.6
15:05 1017 30.03 846 24.98 18.3 64.9 45 6.2 43.2
15:10 1017 30.03 846 24.98 18.1 64.6 46 6.4 43.6
15:15 1017 30.03 846 24.98 18 64.3 47 6.6 43.8
15:20 1017 30.03 846 24.98 17.4 63.4 48 6.5 43.6
15:25 1017 30.03 846 24.98 17.3 63.1 48 6.4 43.5
15:30 1017 30.03 846 24.98 17.2 63 49 6.6 43.8
15:35 1017 30.03 846 24.98 17.1 62.8 49 6.4 43.6
15:40 1017 30.03 846 24.98 17.1 62.8 50 6.7 44
15:45 1017 30.03 846 24.98 17.1 62.7 50 6.6 43.9
15:50 1017 30.03 846 24.98 16.9 62.5 50 6.6 44
15:55 1017 30.03 846 24.98 16.8 62.3 50 6.6 43.8
16:00 1017 30.03 846 24.98 16.8 62.3 50 6.4 43.5
16:05 1017 30.03 846 24.98 17 62.5 49 6.4 43.5
16:10 1017 30.03 846 24.98 17.1 62.7 49 6.4 43.5
16:15 1017 30.03 846 24.98 17.1 62.8 49 6.5 43.7
16:20 1017 30.03 846 24.98 17.1 62.8 49 6.5 43.8
16:25 1017 30.03 846 24.98 17 62.7 55 7.9 46.2
16:30 1017 30.03 846 24.98 16.7 62.1 53 7.2 45
16:35 1017 30.03 846 24.98 16.5 61.7 53 7 44.5
16:40 1017 30.03 846 24.98 16.5 61.8 52 6.7 44
16:45 1017 30.03 846 24.98 16.7 62 52 6.7 44.1
16:50 1017 30.03 846 24.98 16.7 62.1 51 6.6 43.9
16:55 1017 30.03 846 24.98 16.7 62.1 51 6.5 43.7
17:00 1017 30.03 846 24.98 16.7 62.1 51 6.5 43.7
17:05 1017 30.03 846 24.98 16.6 61.9 51 6.5 43.7
17:10 1017 30.03 846 24.98 16.6 61.9 51 6.7 44
17:15 1017 30.03 846 24.98 16.6 61.8 52 6.7 44.1
17:20 1017 30.03 846 24.98 16.5 61.7 52 6.9 44.4
17:25 1017 30.03 846 24.98 16.3 61.4 53 6.9 44.4
17:30 1017 30.03 846 24.98 16.2 61.2 56 7.6 45.8
17:35 1017 30.03 846 24.98 16.2 61.2 55 7.3 45.2
17:40 1017 30.03 846 24.98 16 60.9 55 7.1 44.7
17:45 1017 30.03 846 24.98 15.7 60.3 56 7 44.7
17:50 1017 30.03 846 24.98 15.5 59.8 57 7 44.5
17:55 1017 30.03 846 24.98 15.4 59.7 56 6.9 44.3
18:00 1017 30.03 846 24.98 15.4 59.7 56 6.8 44.2
18:05 1017 30.03 846 24.98 15.5 59.8 58 7.2 45
18:10 1017 30.03 846 24.98 15.3 59.6 58 7.1 44.8
18:15 1017 30.03 846 24.98 14.9 58.8 58 6.8 44.2
18:20 1017 30.03 846 24.98 14.9 58.8 58 6.7 44.1
18:25 1017 30.03 846 24.98 14.7 58.4 60 7.1 44.8
18:30 1017 30.03 846 24.98 14.3 57.8 63 7.3 45.2
18:35 1017 30.03 846 24.98 14 57.2 63 7.2 45
18:40 1017 30.03 846 24.98 13.7 56.7 64 7.1 44.8
18:45 1017 30.03 846 24.98 13.8 56.8 62 6.8 44.2
18:50 1017 30.03 846 24.98 14 57.1 62 6.8 44.3
18:55 1017 30.03 846 24.98 14.1 57.4 60 6.5 43.7
19:00 1017 30.03 846 24.98 14 57.2 60 6.4 43.5
19:05 1017 30.03 846 24.98 14 57.2 59 6.1 43
19:10 1017 30.03 846 24.98 13.9 57 59 6.1 42.9
19:15 1017 30.03 846 24.98 13.7 56.6 59 6 42.8
19:20 1017 30.03 846 24.98 13.6 56.4 60 6.1 43
19:25 1017 30.03 846 24.98 13.3 55.9 62 6.2 43.1
19:30 1017 30.03 846 24.98 13.1 55.7 62 6 42.9
19:35 1017 30.03 846 24.98 13.3 55.9 60 5.7 42.2
19:40 1017 30.03 846 24.98 13.7 56.7 58 5.7 42.3
19:45 1017 30.03 846 24.98 13.8 56.8 58 5.8 42.4
19:50 1017 30.03 846 24.98 13.8 56.8 59 5.9 42.7
19:55 1017 30.03 847 25.01 13.4 56.1 61 6.2 43.2
20:00 1017 30.03 846 24.98 13.1 55.6 61 5.8 42.4
20:05 1017 30.03 846 24.98 13.4 56.2 59 5.6 42
20:10 1017 30.03 846 24.98 13.8 56.8 59 6 42.7
20:15 1017 30.03 846 24.98 13.8 56.9 59 6 42.8
20:20 1017 30.03 846 24.98 13.6 56.6 60 6.2 43.1
20:25 1017 30.03 846 24.98 13.3 56 61 5.9 42.7
20:30 1017 30.03 846 24.98 13.3 56 61 6 42.7
20:35 1017 30.03 846 24.98 12.9 55.3 64 6.3 43.3
20:40 1017 30.03 846 24.98 12.3 54.2 65 6 42.8
20:45 1017 30.03 846 24.98 12.4 54.3 64 5.7 42.3
20:50 1017 30.03 846 24.98 12.7 54.8 63 5.9 42.6
20:55 1017 30.03 846 24.98 12.3 54.2 65 6 42.8
21:00 1017 30.03 846 24.98 12.3 54.1 64 5.7 42.3
21:05 1017 30.03 846 24.98 12.2 54 64 5.7 42.3
21:10 1017 30.03 846 24.98 12.1 53.8 65 5.8 42.5
21:15 1017 30.03 846 24.98 11.9 53.3 66 5.7 42.3
21:20 1017 30.03 846 24.98 11.8 53.2 66 5.7 42.2
21:25 1017 30.03 846 24.98 11.6 52.8 67 5.7 42.2
21:30 1017 30.03 846 24.98 11.5 52.6 67 5.6 42.1
21:35 1017 30.03 846 24.98 11.6 52.8 67 5.6 42.1
21:40 1017 30.03 846 24.98 11.6 52.8 67 5.7 42.3
21:45 1017 30.03 846 24.98 11.4 52.5 67 5.6 42.1
21:50 1017 30.03 846 24.98 11.4 52.5 67 5.6 42.1
21:55 1017 30.03 846 24.98 11.4 52.4 68 5.6 42.1
22:00 1017 30.03 846 24.98 11.2 52.1 68 5.5 42
22:05 1017 30.03 846 24.98 11 51.7 69 5.5 41.8
22:10 1017 30.03 846 24.98 11.1 51.9 67 5.3 41.5
22:15 1017 30.03 846 24.98 11.5 52.6 66 5.3 41.6
22:20 1017 30.03 846 24.98 11.7 53 65 5.5 41.9
22:25 1017 30.03 846 24.98 11.7 53 65 5.4 41.7
22:30 1017 30.03 846 24.98 12 53.5 63 5.2 41.4
22:35 1017 30.03 846 24.98 11.9 53.4 65 5.6 42.1
22:40 1017 30.03 846 24.98 11.8 53.2 63 5.1 41.2
22:45 1017 30.03 846 24.98 12.2 53.9 62 5.2 41.4
22:50 1017 30.03 846 24.98 12.1 53.7 63 5.3 41.5
22:55 1017 30.03 846 24.98 12 53.6 63 5.2 41.4
23:00 1017 30.03 846 24.98 11.9 53.3 64 5.2 41.4
23:05 1016 30 846 24.98 11.7 53.1 64 5.2 41.3
23:10 1016 30 846 24.98 11.7 53.1 64 5.1 41.2
23:15 1016 30 846 24.98 11.7 53.1 64 5.2 41.3
23:20 1016 30 846 24.98 11.7 53.1 64 5.2 41.3
23:25 1016 30 846 24.98 11.8 53.2 64 5.3 41.5
23:30 1016 30 846 24.98 11.7 53 65 5.5 41.8
23:35 1016 30 846 24.98 11.7 53.1 65 5.3 41.6
23:40 1016 30 846 24.98 11.8 53.2 64 5.3 41.6
23:45 1017 30.03 846 24.98 11.6 52.8 65 5.2 41.4
23:50 1017 30.03 846 24.98 11.3 52.4 66 5.3 41.5
23:55 1016 30 846 24.98 11.3 52.4 65 5.1 41.2
24:00 1016 30 846 24.98 11.7 53 65 5.3 41.5